sensor_id;sensor_type;location;lat;lon;timestamp;temperature;humidity
18506;DHT22;9382;53.242;10.438;2023-06-19T00:01:07;20.40;99.90
18506;DHT22;9382;53.242;10.438;2023-06-19T00:03:34;20.40;99.90
18506;DHT22;9382;53.242;10.438;2023-06-19T00:06:00;20.40;99.90
18506;DHT22;9382;53.242;10.438;2023-06-19T00:08:27;20.30;99.90
18506;DHT22;9382;53.242;10.438;2023-06-19T00:10:55;20.30;99.90
18506;DHT22;9382;53.242;10.438;2023-06-19T00:13:22;20.30;99.90
18506;DHT22;9382;53.242;10.438;2023-06-19T00:15:49;20.30;99.90
18506;DHT22;9382;53.242;10.438;2023-06-19T00:18:15;20.30;99.90
18506;DHT22;9382;53.242;10.438;2023-06-19T00:20:45;20.30;99.90
18506;DHT22;9382;53.242;10.438;2023-06-19T00:23:11;20.20;99.90
18506;DHT22;9382;53.242;10.438;2023-06-19T00:25:40;20.20;99.90
18506;DHT22;9382;53.242;10.438;2023-06-19T00:28:08;20.20;99.90
18506;DHT22;9382;53.242;10.438;2023-06-19T00:30:39;20.20;99.90
18506;DHT22;9382;53.242;10.438;2023-06-19T00:33:06;20.20;99.90
18506;DHT22;9382;53.242;10.438;2023-06-19T00:35:33;20.20;99.90
18506;DHT22;9382;53.242;10.438;2023-06-19T00:37:59;20.20;99.90
18506;DHT22;9382;53.242;10.438;2023-06-19T00:40:27;20.20;99.90
18506;DHT22;9382;53.242;10.438;2023-06-19T00:42:55;20.20;99.90
18506;DHT22;9382;53.242;10.438;2023-06-19T00:45:23;20.20;99.90
18506;DHT22;9382;53.242;10.438;2023-06-19T00:47:50;20.20;99.90
18506;DHT22;9382;53.242;10.438;2023-06-19T00:50:17;20.20;99.90
18506;DHT22;9382;53.242;10.438;2023-06-19T00:52:45;20.20;99.90
18506;DHT22;9382;53.242;10.438;2023-06-19T00:55:12;20.20;99.90
18506;DHT22;9382;53.242;10.438;2023-06-19T00:57:39;20.20;99.90
18506;DHT22;9382;53.242;10.438;2023-06-19T01:00:07;20.30;99.90
18506;DHT22;9382;53.242;10.438;2023-06-19T01:02:36;20.30;99.90
18506;DHT22;9382;53.242;10.438;2023-06-19T01:05:02;20.30;99.90
18506;DHT22;9382;53.242;10.438;2023-06-19T01:07:36;20.30;99.90
18506;DHT22;9382;53.242;10.438;2023-06-19T01:10:08;20.30;99.90
18506;DHT22;9382;53.242;10.438;2023-06-19T01:12:38;20.30;99.90
18506;DHT22;9382;53.242;10.438;2023-06-19T01:15:07;20.30;99.90
18506;DHT22;9382;53.242;10.438;2023-06-19T01:17:36;20.30;99.90
18506;DHT22;9382;53.242;10.438;2023-06-19T01:20:03;20.30;99.90
18506;DHT22;9382;53.242;10.438;2023-06-19T01:22:37;20.30;99.90
18506;DHT22;9382;53.242;10.438;2023-06-19T01:25:04;20.20;99.90
18506;DHT22;9382;53.242;10.438;2023-06-19T01:27:32;20.20;99.90
18506;DHT22;9382;53.242;10.438;2023-06-19T01:29:59;20.20;99.90
18506;DHT22;9382;53.242;10.438;2023-06-19T01:32:31;20.20;99.90
18506;DHT22;9382;53.242;10.438;2023-06-19T01:35:00;20.20;99.90
18506;DHT22;9382;53.242;10.438;2023-06-19T01:37:28;20.20;99.90
18506;DHT22;9382;53.242;10.438;2023-06-19T01:40:00;20.20;99.90
18506;DHT22;9382;53.242;10.438;2023-06-19T01:42:29;20.20;99.90
18506;DHT22;9382;53.242;10.438;2023-06-19T01:44:56;20.20;99.90
18506;DHT22;9382;53.242;10.438;2023-06-19T01:47:22;20.20;99.90
18506;DHT22;9382;53.242;10.438;2023-06-19T01:49:49;20.20;99.90
18506;DHT22;9382;53.242;10.438;2023-06-19T01:52:16;20.20;99.90
18506;DHT22;9382;53.242;10.438;2023-06-19T01:54:42;20.20;99.90
18506;DHT22;9382;53.242;10.438;2023-06-19T01:57:10;20.20;99.90
18506;DHT22;9382;53.242;10.438;2023-06-19T01:59:37;20.20;99.90
18506;DHT22;9382;53.242;10.438;2023-06-19T02:02:04;20.20;99.90
18506;DHT22;9382;53.242;10.438;2023-06-19T02:04:32;20.20;99.90
18506;DHT22;9382;53.242;10.438;2023-06-19T02:06:59;20.20;99.90
18506;DHT22;9382;53.242;10.438;2023-06-19T02:09:25;20.20;99.90
18506;DHT22;9382;53.242;10.438;2023-06-19T02:11:52;20.20;99.90
18506;DHT22;9382;53.242;10.438;2023-06-19T02:14:20;20.20;99.90
18506;DHT22;9382;53.242;10.438;2023-06-19T02:16:47;20.20;99.90
18506;DHT22;9382;53.242;10.438;2023-06-19T02:19:13;20.20;99.90
18506;DHT22;9382;53.242;10.438;2023-06-19T02:21:40;20.20;99.90
18506;DHT22;9382;53.242;10.438;2023-06-19T02:24:07;20.20;99.90
18506;DHT22;9382;53.242;10.438;2023-06-19T02:26:33;20.20;99.90
18506;DHT22;9382;53.242;10.438;2023-06-19T02:29:00;20.30;99.90
18506;DHT22;9382;53.242;10.438;2023-06-19T02:31:28;20.30;99.90
18506;DHT22;9382;53.242;10.438;2023-06-19T02:33:55;20.30;99.90
18506;DHT22;9382;53.242;10.438;2023-06-19T02:36:21;20.30;99.90
18506;DHT22;9382;53.242;10.438;2023-06-19T02:38:48;20.30;99.90
18506;DHT22;9382;53.242;10.438;2023-06-19T02:41:15;20.30;99.90
18506;DHT22;9382;53.242;10.438;2023-06-19T02:43:43;20.30;99.90
18506;DHT22;9382;53.242;10.438;2023-06-19T02:46:10;20.40;99.90
18506;DHT22;9382;53.242;10.438;2023-06-19T02:48:38;20.40;99.90
18506;DHT22;9382;53.242;10.438;2023-06-19T02:51:05;20.40;99.90
18506;DHT22;9382;53.242;10.438;2023-06-19T02:53:33;20.50;99.90
18506;DHT22;9382;53.242;10.438;2023-06-19T02:56:00;20.50;99.90
18506;DHT22;9382;53.242;10.438;2023-06-19T02:58:27;20.50;99.90
18506;DHT22;9382;53.242;10.438;2023-06-19T03:00:53;20.50;99.90
18506;DHT22;9382;53.242;10.438;2023-06-19T03:03:20;20.50;99.90
18506;DHT22;9382;53.242;10.438;2023-06-19T03:05:49;20.50;99.90
18506;DHT22;9382;53.242;10.438;2023-06-19T03:08:16;20.40;99.90
18506;DHT22;9382;53.242;10.438;2023-06-19T03:10:42;20.40;99.90
18506;DHT22;9382;53.242;10.438;2023-06-19T03:13:10;20.40;99.90
18506;DHT22;9382;53.242;10.438;2023-06-19T03:15:36;20.40;99.90
18506;DHT22;9382;53.242;10.438;2023-06-19T03:18:03;20.40;99.90
18506;DHT22;9382;53.242;10.438;2023-06-19T03:20:32;20.40;99.90
18506;DHT22;9382;53.242;10.438;2023-06-19T03:23:00;20.40;99.90
18506;DHT22;9382;53.242;10.438;2023-06-19T03:25:27;20.40;99.90
18506;DHT22;9382;53.242;10.438;2023-06-19T03:28:00;20.40;99.90
18506;DHT22;9382;53.242;10.438;2023-06-19T03:30:27;20.40;99.90
18506;DHT22;9382;53.242;10.438;2023-06-19T03:32:53;20.40;99.90
18506;DHT22;9382;53.242;10.438;2023-06-19T03:35:20;20.40;99.90
18506;DHT22;9382;53.242;10.438;2023-06-19T03:37:47;20.40;99.90
18506;DHT22;9382;53.242;10.438;2023-06-19T03:40:15;20.40;99.90
18506;DHT22;9382;53.242;10.438;2023-06-19T03:42:41;20.40;99.90
18506;DHT22;9382;53.242;10.438;2023-06-19T03:45:08;20.40;99.90
18506;DHT22;9382;53.242;10.438;2023-06-19T03:47:35;20.40;99.90
18506;DHT22;9382;53.242;10.438;2023-06-19T03:50:02;20.40;99.90
18506;DHT22;9382;53.242;10.438;2023-06-19T03:52:29;20.40;99.90
18506;DHT22;9382;53.242;10.438;2023-06-19T03:54:55;20.30;99.90
18506;DHT22;9382;53.242;10.438;2023-06-19T03:57:23;20.40;99.90
18506;DHT22;9382;53.242;10.438;2023-06-19T03:59:50;20.30;99.90
18506;DHT22;9382;53.242;10.438;2023-06-19T04:02:19;20.40;99.90
18506;DHT22;9382;53.242;10.438;2023-06-19T04:04:45;20.40;99.90
18506;DHT22;9382;53.242;10.438;2023-06-19T04:07:12;20.40;99.90
18506;DHT22;9382;53.242;10.438;2023-06-19T04:09:39;20.40;99.90
18506;DHT22;9382;53.242;10.438;2023-06-19T04:12:06;20.40;99.90
18506;DHT22;9382;53.242;10.438;2023-06-19T04:14:34;20.40;99.90
18506;DHT22;9382;53.242;10.438;2023-06-19T04:17:01;20.50;99.90
18506;DHT22;9382;53.242;10.438;2023-06-19T04:19:27;20.50;99.90
18506;DHT22;9382;53.242;10.438;2023-06-19T04:21:54;20.60;99.90
18506;DHT22;9382;53.242;10.438;2023-06-19T04:24:21;20.60;99.90
18506;DHT22;9382;53.242;10.438;2023-06-19T04:26:47;20.60;99.90
18506;DHT22;9382;53.242;10.438;2023-06-19T04:29:14;20.70;99.90
18506;DHT22;9382;53.242;10.438;2023-06-19T04:31:43;20.70;99.90
18506;DHT22;9382;53.242;10.438;2023-06-19T04:34:12;20.80;99.90
18506;DHT22;9382;53.242;10.438;2023-06-19T04:36:39;20.80;99.90
18506;DHT22;9382;53.242;10.438;2023-06-19T04:39:06;20.80;99.90
18506;DHT22;9382;53.242;10.438;2023-06-19T04:41:33;20.80;99.90
18506;DHT22;9382;53.242;10.438;2023-06-19T04:44:04;20.80;99.90
18506;DHT22;9382;53.242;10.438;2023-06-19T04:46:31;20.80;99.90
18506;DHT22;9382;53.242;10.438;2023-06-19T04:48:59;20.80;99.90
18506;DHT22;9382;53.242;10.438;2023-06-19T04:51:29;20.70;99.90
18506;DHT22;9382;53.242;10.438;2023-06-19T04:53:55;20.80;99.90
18506;DHT22;9382;53.242;10.438;2023-06-19T04:56:22;20.80;99.90
18506;DHT22;9382;53.242;10.438;2023-06-19T04:58:49;20.80;99.90
18506;DHT22;9382;53.242;10.438;2023-06-19T05:01:17;20.90;99.90
18506;DHT22;9382;53.242;10.438;2023-06-19T05:03:48;20.90;99.90
18506;DHT22;9382;53.242;10.438;2023-06-19T05:06:15;21.00;99.90
18506;DHT22;9382;53.242;10.438;2023-06-19T05:08:43;21.10;99.90
18506;DHT22;9382;53.242;10.438;2023-06-19T05:11:10;21.10;99.90
18506;DHT22;9382;53.242;10.438;2023-06-19T05:13:36;21.10;99.90
18506;DHT22;9382;53.242;10.438;2023-06-19T05:16:03;21.20;99.90
18506;DHT22;9382;53.242;10.438;2023-06-19T05:18:30;21.30;99.90
18506;DHT22;9382;53.242;10.438;2023-06-19T05:20:57;21.30;99.90
18506;DHT22;9382;53.242;10.438;2023-06-19T05:23:25;21.40;99.90
18506;DHT22;9382;53.242;10.438;2023-06-19T05:25:51;21.40;99.90
18506;DHT22;9382;53.242;10.438;2023-06-19T05:28:18;21.40;99.90
18506;DHT22;9382;53.242;10.438;2023-06-19T05:30:44;21.50;99.90
18506;DHT22;9382;53.242;10.438;2023-06-19T05:33:11;21.50;99.90
18506;DHT22;9382;53.242;10.438;2023-06-19T05:35:41;21.50;99.90
18506;DHT22;9382;53.242;10.438;2023-06-19T05:38:08;21.50;99.90
18506;DHT22;9382;53.242;10.438;2023-06-19T05:40:35;21.50;99.90
18506;DHT22;9382;53.242;10.438;2023-06-19T05:43:02;21.40;99.90
18506;DHT22;9382;53.242;10.438;2023-06-19T05:45:29;21.40;99.90
18506;DHT22;9382;53.242;10.438;2023-06-19T05:47:56;21.40;99.90
18506;DHT22;9382;53.242;10.438;2023-06-19T05:50:22;21.40;99.90
18506;DHT22;9382;53.242;10.438;2023-06-19T05:52:49;21.30;99.90
18506;DHT22;9382;53.242;10.438;2023-06-19T05:55:16;21.30;99.90
18506;DHT22;9382;53.242;10.438;2023-06-19T05:57:44;21.30;99.90
18506;DHT22;9382;53.242;10.438;2023-06-19T06:00:13;21.30;99.90
18506;DHT22;9382;53.242;10.438;2023-06-19T06:02:41;21.20;99.90
18506;DHT22;9382;53.242;10.438;2023-06-19T06:05:08;21.20;99.90
18506;DHT22;9382;53.242;10.438;2023-06-19T06:07:35;21.20;99.90
18506;DHT22;9382;53.242;10.438;2023-06-19T06:10:02;21.30;99.90
18506;DHT22;9382;53.242;10.438;2023-06-19T06:12:29;21.30;99.90
18506;DHT22;9382;53.242;10.438;2023-06-19T06:14:57;21.30;99.90
18506;DHT22;9382;53.242;10.438;2023-06-19T06:17:23;21.40;99.90
18506;DHT22;9382;53.242;10.438;2023-06-19T06:19:50;21.40;99.90
18506;DHT22;9382;53.242;10.438;2023-06-19T06:22:17;21.30;99.90
18506;DHT22;9382;53.242;10.438;2023-06-19T06:24:44;21.30;99.90
18506;DHT22;9382;53.242;10.438;2023-06-19T06:27:12;21.30;99.90
18506;DHT22;9382;53.242;10.438;2023-06-19T06:29:38;21.30;99.90
18506;DHT22;9382;53.242;10.438;2023-06-19T06:32:09;21.30;99.90
18506;DHT22;9382;53.242;10.438;2023-06-19T06:34:36;21.20;99.90
18506;DHT22;9382;53.242;10.438;2023-06-19T06:37:03;21.30;99.90
18506;DHT22;9382;53.242;10.438;2023-06-19T06:39:30;21.30;99.90
18506;DHT22;9382;53.242;10.438;2023-06-19T06:41:57;21.30;99.90
18506;DHT22;9382;53.242;10.438;2023-06-19T06:44:23;21.30;99.90
18506;DHT22;9382;53.242;10.438;2023-06-19T06:46:50;21.30;99.90
18506;DHT22;9382;53.242;10.438;2023-06-19T06:49:18;21.30;99.90
18506;DHT22;9382;53.242;10.438;2023-06-19T06:51:45;21.40;99.90
18506;DHT22;9382;53.242;10.438;2023-06-19T06:54:12;21.40;99.90
18506;DHT22;9382;53.242;10.438;2023-06-19T06:56:38;21.50;99.90
18506;DHT22;9382;53.242;10.438;2023-06-19T06:59:05;21.50;99.90
18506;DHT22;9382;53.242;10.438;2023-06-19T07:01:32;21.50;99.90
18506;DHT22;9382;53.242;10.438;2023-06-19T07:03:58;21.50;99.90
18506;DHT22;9382;53.242;10.438;2023-06-19T07:06:26;21.60;99.90
18506;DHT22;9382;53.242;10.438;2023-06-19T07:08:53;21.60;99.90
18506;DHT22;9382;53.242;10.438;2023-06-19T07:11:19;21.70;99.90
18506;DHT22;9382;53.242;10.438;2023-06-19T07:13:46;21.70;99.90
18506;DHT22;9382;53.242;10.438;2023-06-19T07:16:13;21.70;99.90
18506;DHT22;9382;53.242;10.438;2023-06-19T07:18:39;21.70;99.90
18506;DHT22;9382;53.242;10.438;2023-06-19T07:21:10;21.80;99.90
18506;DHT22;9382;53.242;10.438;2023-06-19T07:23:39;21.80;99.90
18506;DHT22;9382;53.242;10.438;2023-06-19T07:26:06;21.90;99.90
18506;DHT22;9382;53.242;10.438;2023-06-19T07:28:32;22.00;99.90
18506;DHT22;9382;53.242;10.438;2023-06-19T07:31:01;22.00;99.90
18506;DHT22;9382;53.242;10.438;2023-06-19T07:33:28;22.00;99.90
18506;DHT22;9382;53.242;10.438;2023-06-19T07:35:55;22.10;99.90
18506;DHT22;9382;53.242;10.438;2023-06-19T07:38:22;22.10;99.90
18506;DHT22;9382;53.242;10.438;2023-06-19T07:40:50;22.10;99.90
18506;DHT22;9382;53.242;10.438;2023-06-19T07:43:17;22.10;99.90
18506;DHT22;9382;53.242;10.438;2023-06-19T07:45:43;22.10;99.90
18506;DHT22;9382;53.242;10.438;2023-06-19T07:48:10;22.10;99.90
18506;DHT22;9382;53.242;10.438;2023-06-19T07:50:37;22.10;99.90
18506;DHT22;9382;53.242;10.438;2023-06-19T07:53:03;22.10;99.90
18506;DHT22;9382;53.242;10.438;2023-06-19T07:55:30;22.20;99.90
18506;DHT22;9382;53.242;10.438;2023-06-19T07:57:59;22.30;99.90
18506;DHT22;9382;53.242;10.438;2023-06-19T08:00:25;22.40;99.90
18506;DHT22;9382;53.242;10.438;2023-06-19T08:02:52;22.50;99.90
18506;DHT22;9382;53.242;10.438;2023-06-19T08:05:19;22.50;99.90
18506;DHT22;9382;53.242;10.438;2023-06-19T08:07:45;22.50;99.90
18506;DHT22;9382;53.242;10.438;2023-06-19T08:10:12;22.50;99.90
18506;DHT22;9382;53.242;10.438;2023-06-19T08:12:40;22.50;99.90
18506;DHT22;9382;53.242;10.438;2023-06-19T08:15:09;22.50;99.90
18506;DHT22;9382;53.242;10.438;2023-06-19T08:17:35;22.40;99.90
18506;DHT22;9382;53.242;10.438;2023-06-19T08:20:03;22.40;99.90
18506;DHT22;9382;53.242;10.438;2023-06-19T08:22:30;22.50;99.90
18506;DHT22;9382;53.242;10.438;2023-06-19T08:24:57;22.50;99.90
18506;DHT22;9382;53.242;10.438;2023-06-19T08:27:23;22.60;99.90
18506;DHT22;9382;53.242;10.438;2023-06-19T08:29:50;22.60;99.90
18506;DHT22;9382;53.242;10.438;2023-06-19T08:32:18;22.70;99.90
18506;DHT22;9382;53.242;10.438;2023-06-19T08:34:45;22.80;99.90
18506;DHT22;9382;53.242;10.438;2023-06-19T08:37:12;22.80;99.90
18506;DHT22;9382;53.242;10.438;2023-06-19T08:39:38;22.90;99.90
18506;DHT22;9382;53.242;10.438;2023-06-19T08:42:06;22.90;99.90
18506;DHT22;9382;53.242;10.438;2023-06-19T08:44:33;22.80;99.90
18506;DHT22;9382;53.242;10.438;2023-06-19T08:47:01;22.80;99.90
18506;DHT22;9382;53.242;10.438;2023-06-19T08:49:31;22.80;99.90
18506;DHT22;9382;53.242;10.438;2023-06-19T08:51:58;22.80;99.90
18506;DHT22;9382;53.242;10.438;2023-06-19T08:54:25;22.80;99.90
18506;DHT22;9382;53.242;10.438;2023-06-19T08:56:52;22.90;99.90
18506;DHT22;9382;53.242;10.438;2023-06-19T08:59:20;23.00;99.90
18506;DHT22;9382;53.242;10.438;2023-06-19T09:01:47;23.00;99.90
18506;DHT22;9382;53.242;10.438;2023-06-19T09:04:18;23.20;99.90
18506;DHT22;9382;53.242;10.438;2023-06-19T09:06:48;23.50;99.90
18506;DHT22;9382;53.242;10.438;2023-06-19T09:09:16;24.00;99.90
18506;DHT22;9382;53.242;10.438;2023-06-19T09:11:43;24.40;99.90
18506;DHT22;9382;53.242;10.438;2023-06-19T09:14:10;24.80;99.90
18506;DHT22;9382;53.242;10.438;2023-06-19T09:16:38;24.90;99.90
18506;DHT22;9382;53.242;10.438;2023-06-19T09:19:05;25.20;99.90
18506;DHT22;9382;53.242;10.438;2023-06-19T09:21:35;25.60;99.90
18506;DHT22;9382;53.242;10.438;2023-06-19T09:24:08;26.10;99.90
18506;DHT22;9382;53.242;10.438;2023-06-19T09:26:34;26.50;99.90
18506;DHT22;9382;53.242;10.438;2023-06-19T09:29:12;26.70;99.90
18506;DHT22;9382;53.242;10.438;2023-06-19T09:31:39;27.00;99.90
18506;DHT22;9382;53.242;10.438;2023-06-19T09:34:07;27.40;99.90
18506;DHT22;9382;53.242;10.438;2023-06-19T09:36:34;27.80;99.90
18506;DHT22;9382;53.242;10.438;2023-06-19T09:39:02;28.00;99.90
18506;DHT22;9382;53.242;10.438;2023-06-19T09:41:31;27.90;99.90
18506;DHT22;9382;53.242;10.438;2023-06-19T09:43:59;27.90;99.90
18506;DHT22;9382;53.242;10.438;2023-06-19T09:46:30;28.10;99.90
18506;DHT22;9382;53.242;10.438;2023-06-19T09:49:00;28.40;99.90
18506;DHT22;9382;53.242;10.438;2023-06-19T09:51:30;28.80;99.90
18506;DHT22;9382;53.242;10.438;2023-06-19T09:53:57;29.10;99.90
18506;DHT22;9382;53.242;10.438;2023-06-19T09:56:24;29.00;99.90
18506;DHT22;9382;53.242;10.438;2023-06-19T09:58:56;29.10;99.90
18506;DHT22;9382;53.242;10.438;2023-06-19T10:01:27;29.50;99.90
18506;DHT22;9382;53.242;10.438;2023-06-19T10:04:05;29.90;99.90
18506;DHT22;9382;53.242;10.438;2023-06-19T10:06:32;30.10;99.90
18506;DHT22;9382;53.242;10.438;2023-06-19T10:09:16;30.40;99.90
18506;DHT22;9382;53.242;10.438;2023-06-19T10:11:45;30.50;99.90
18506;DHT22;9382;53.242;10.438;2023-06-19T10:14:14;30.60;99.90
18506;DHT22;9382;53.242;10.438;2023-06-19T10:16:43;30.70;99.90
18506;DHT22;9382;53.242;10.438;2023-06-19T10:19:14;30.50;99.90
18506;DHT22;9382;53.242;10.438;2023-06-19T10:21:45;30.30;99.90
18506;DHT22;9382;53.242;10.438;2023-06-19T10:24:16;30.10;99.90
18506;DHT22;9382;53.242;10.438;2023-06-19T10:26:55;30.10;99.90
18506;DHT22;9382;53.242;10.438;2023-06-19T10:29:23;30.10;99.90
18506;DHT22;9382;53.242;10.438;2023-06-19T10:31:51;30.20;99.90
18506;DHT22;9382;53.242;10.438;2023-06-19T10:34:18;30.20;99.90
18506;DHT22;9382;53.242;10.438;2023-06-19T10:36:44;30.30;99.90
18506;DHT22;9382;53.242;10.438;2023-06-19T10:39:11;30.40;99.90
18506;DHT22;9382;53.242;10.438;2023-06-19T10:41:40;30.50;99.90
18506;DHT22;9382;53.242;10.438;2023-06-19T10:44:07;30.70;99.90
18506;DHT22;9382;53.242;10.438;2023-06-19T10:46:39;30.70;99.90
18506;DHT22;9382;53.242;10.438;2023-06-19T10:49:08;30.60;99.90
18506;DHT22;9382;53.242;10.438;2023-06-19T10:51:37;30.40;99.90
18506;DHT22;9382;53.242;10.438;2023-06-19T10:54:04;30.40;99.90
18506;DHT22;9382;53.242;10.438;2023-06-19T10:56:31;30.70;99.90
18506;DHT22;9382;53.242;10.438;2023-06-19T10:58:59;31.00;99.90
18506;DHT22;9382;53.242;10.438;2023-06-19T11:01:37;31.20;99.90
18506;DHT22;9382;53.242;10.438;2023-06-19T11:04:07;31.40;99.90
18506;DHT22;9382;53.242;10.438;2023-06-19T11:06:34;31.20;99.90
18506;DHT22;9382;53.242;10.438;2023-06-19T11:09:02;31.40;99.90
18506;DHT22;9382;53.242;10.438;2023-06-19T11:11:38;31.80;99.90
18506;DHT22;9382;53.242;10.438;2023-06-19T11:14:05;32.20;99.90
18506;DHT22;9382;53.242;10.438;2023-06-19T11:16:32;32.60;99.90
18506;DHT22;9382;53.242;10.438;2023-06-19T11:18:59;32.90;99.90
18506;DHT22;9382;53.242;10.438;2023-06-19T11:21:34;32.80;99.90
18506;DHT22;9382;53.242;10.438;2023-06-19T11:24:03;32.60;99.90
18506;DHT22;9382;53.242;10.438;2023-06-19T11:26:34;32.10;99.90
18506;DHT22;9382;53.242;10.438;2023-06-19T11:29:01;32.00;99.90
18506;DHT22;9382;53.242;10.438;2023-06-19T11:31:28;31.60;99.90
18506;DHT22;9382;53.242;10.438;2023-06-19T11:33:57;30.80;99.90
18506;DHT22;9382;53.242;10.438;2023-06-19T11:36:24;30.20;99.90
18506;DHT22;9382;53.242;10.438;2023-06-19T11:38:52;29.80;99.90
18506;DHT22;9382;53.242;10.438;2023-06-19T11:41:26;29.70;99.90
18506;DHT22;9382;53.242;10.438;2023-06-19T11:43:58;29.80;99.90
18506;DHT22;9382;53.242;10.438;2023-06-19T11:46:28;29.90;99.90
18506;DHT22;9382;53.242;10.438;2023-06-19T11:48:56;30.00;99.90
18506;DHT22;9382;53.242;10.438;2023-06-19T11:51:33;30.30;99.90
18506;DHT22;9382;53.242;10.438;2023-06-19T11:54:01;30.80;99.90
18506;DHT22;9382;53.242;10.438;2023-06-19T11:56:28;31.40;99.90
18506;DHT22;9382;53.242;10.438;2023-06-19T11:58:55;31.80;99.90
18506;DHT22;9382;53.242;10.438;2023-06-19T12:01:22;31.90;99.90
18506;DHT22;9382;53.242;10.438;2023-06-19T12:03:48;31.70;99.90
18506;DHT22;9382;53.242;10.438;2023-06-19T12:06:16;31.80;99.90
18506;DHT22;9382;53.242;10.438;2023-06-19T12:08:43;32.20;99.90
18506;DHT22;9382;53.242;10.438;2023-06-19T12:11:11;32.50;99.90
18506;DHT22;9382;53.242;10.438;2023-06-19T12:13:39;32.80;99.90
18506;DHT22;9382;53.242;10.438;2023-06-19T12:16:06;33.00;99.90
18506;DHT22;9382;53.242;10.438;2023-06-19T12:18:33;33.30;99.90
18506;DHT22;9382;53.242;10.438;2023-06-19T12:20:59;33.70;99.90
18506;DHT22;9382;53.242;10.438;2023-06-19T12:23:26;34.10;99.90
18506;DHT22;9382;53.242;10.438;2023-06-19T12:25:53;34.40;99.90
18506;DHT22;9382;53.242;10.438;2023-06-19T12:28:21;34.70;99.90
18506;DHT22;9382;53.242;10.438;2023-06-19T12:30:48;34.50;99.90
18506;DHT22;9382;53.242;10.438;2023-06-19T12:33:16;34.40;99.90
18506;DHT22;9382;53.242;10.438;2023-06-19T12:35:44;34.30;99.90
18506;DHT22;9382;53.242;10.438;2023-06-19T12:38:11;34.00;99.90
18506;DHT22;9382;53.242;10.438;2023-06-19T12:40:38;33.20;99.90
18506;DHT22;9382;53.242;10.438;2023-06-19T12:43:05;33.10;99.90
18506;DHT22;9382;53.242;10.438;2023-06-19T12:45:33;33.30;99.90
18506;DHT22;9382;53.242;10.438;2023-06-19T12:48:00;33.40;99.90
18506;DHT22;9382;53.242;10.438;2023-06-19T12:50:26;33.00;99.90
18506;DHT22;9382;53.242;10.438;2023-06-19T12:52:53;32.60;99.90
18506;DHT22;9382;53.242;10.438;2023-06-19T12:55:19;32.40;99.90
18506;DHT22;9382;53.242;10.438;2023-06-19T12:57:46;32.10;99.90
18506;DHT22;9382;53.242;10.438;2023-06-19T13:00:13;32.70;99.90
18506;DHT22;9382;53.242;10.438;2023-06-19T13:02:41;33.80;99.90
18506;DHT22;9382;53.242;10.438;2023-06-19T13:05:09;34.70;99.90
18506;DHT22;9382;53.242;10.438;2023-06-19T13:07:35;35.40;99.90
18506;DHT22;9382;53.242;10.438;2023-06-19T13:10:02;35.70;99.80
18506;DHT22;9382;53.242;10.438;2023-06-19T13:12:31;35.70;99.90
18506;DHT22;9382;53.242;10.438;2023-06-19T13:14:57;35.70;99.30
18506;DHT22;9382;53.242;10.438;2023-06-19T13:17:24;35.20;99.60
18506;DHT22;9382;53.242;10.438;2023-06-19T13:19:52;34.40;99.30
18506;DHT22;9382;53.242;10.438;2023-06-19T13:22:19;33.90;99.90
18506;DHT22;9382;53.242;10.438;2023-06-19T13:24:45;33.90;99.90
18506;DHT22;9382;53.242;10.438;2023-06-19T13:27:12;33.60;99.90
18506;DHT22;9382;53.242;10.438;2023-06-19T13:29:39;33.20;99.90
18506;DHT22;9382;53.242;10.438;2023-06-19T13:32:06;33.30;99.90
18506;DHT22;9382;53.242;10.438;2023-06-19T13:34:33;33.90;99.90
18506;DHT22;9382;53.242;10.438;2023-06-19T13:37:01;34.60;99.90
18506;DHT22;9382;53.242;10.438;2023-06-19T13:39:28;35.70;99.90
18506;DHT22;9382;53.242;10.438;2023-06-19T13:41:55;36.40;99.90
18506;DHT22;9382;53.242;10.438;2023-06-19T13:44:22;37.20;99.70
18506;DHT22;9382;53.242;10.438;2023-06-19T13:46:49;37.40;97.50
18506;DHT22;9382;53.242;10.438;2023-06-19T13:49:15;37.60;99.50
18506;DHT22;9382;53.242;10.438;2023-06-19T13:51:42;38.10;99.30
18506;DHT22;9382;53.242;10.438;2023-06-19T13:54:10;37.40;96.70
18506;DHT22;9382;53.242;10.438;2023-06-19T13:56:38;36.20;97.10
18506;DHT22;9382;53.242;10.438;2023-06-19T13:59:05;34.90;96.80
18506;DHT22;9382;53.242;10.438;2023-06-19T14:01:32;34.60;99.20
18506;DHT22;9382;53.242;10.438;2023-06-19T14:03:59;35.40;99.00
18506;DHT22;9382;53.242;10.438;2023-06-19T14:06:26;35.00;97.70
18506;DHT22;9382;53.242;10.438;2023-06-19T14:08:52;34.40;99.30
18506;DHT22;9382;53.242;10.438;2023-06-19T14:11:20;34.40;99.90
18506;DHT22;9382;53.242;10.438;2023-06-19T14:13:47;34.00;98.30
18506;DHT22;9382;53.242;10.438;2023-06-19T14:16:15;33.60;99.40
18506;DHT22;9382;53.242;10.438;2023-06-19T14:18:41;33.60;98.90
18506;DHT22;9382;53.242;10.438;2023-06-19T14:21:08;33.50;98.70
18506;DHT22;9382;53.242;10.438;2023-06-19T14:23:35;33.10;99.70
18506;DHT22;9382;53.242;10.438;2023-06-19T14:26:08;33.10;99.90
18506;DHT22;9382;53.242;10.438;2023-06-19T14:28:36;33.50;99.90
18506;DHT22;9382;53.242;10.438;2023-06-19T14:31:03;34.50;99.90
18506;DHT22;9382;53.242;10.438;2023-06-19T14:33:30;35.40;99.50
18506;DHT22;9382;53.242;10.438;2023-06-19T14:35:58;35.80;98.00
18506;DHT22;9382;53.242;10.438;2023-06-19T14:38:25;36.20;98.00
18506;DHT22;9382;53.242;10.438;2023-06-19T14:40:56;35.90;97.30
18506;DHT22;9382;53.242;10.438;2023-06-19T14:43:23;34.90;99.00
18506;DHT22;9382;53.242;10.438;2023-06-19T14:45:51;34.10;98.10
18506;DHT22;9382;53.242;10.438;2023-06-19T14:48:18;33.20;98.00
18506;DHT22;9382;53.242;10.438;2023-06-19T14:50:44;33.10;98.20
18506;DHT22;9382;53.242;10.438;2023-06-19T14:53:11;33.20;99.50
18506;DHT22;9382;53.242;10.438;2023-06-19T14:55:38;33.20;97.90
18506;DHT22;9382;53.242;10.438;2023-06-19T14:58:08;33.30;99.90
18506;DHT22;9382;53.242;10.438;2023-06-19T15:00:35;33.60;99.90
18506;DHT22;9382;53.242;10.438;2023-06-19T15:03:05;33.80;98.10
18506;DHT22;9382;53.242;10.438;2023-06-19T15:05:32;33.70;98.40
18506;DHT22;9382;53.242;10.438;2023-06-19T15:07:58;34.10;99.40
18506;DHT22;9382;53.242;10.438;2023-06-19T15:10:26;34.70;97.70
18506;DHT22;9382;53.242;10.438;2023-06-19T15:12:52;35.00;97.10
18506;DHT22;9382;53.242;10.438;2023-06-19T15:15:19;35.00;97.30
18506;DHT22;9382;53.242;10.438;2023-06-19T15:17:46;34.80;98.10
18506;DHT22;9382;53.242;10.438;2023-06-19T15:20:14;34.60;97.30
18506;DHT22;9382;53.242;10.438;2023-06-19T15:22:42;34.10;96.50
18506;DHT22;9382;53.242;10.438;2023-06-19T15:25:09;33.80;97.50
18506;DHT22;9382;53.242;10.438;2023-06-19T15:27:35;33.30;98.10
18506;DHT22;9382;53.242;10.438;2023-06-19T15:30:03;33.10;97.50
18506;DHT22;9382;53.242;10.438;2023-06-19T15:32:29;32.90;98.00